Weather reports worldwide

Advertisment
Tarifa, Spain (8458): temperature & dewpoint: 17.09.2018 03:00:00 - 23.09.2018 03:00:00 (CEST)Tarifa, Spain (8458): wind speed & gusts: 17.09.2018 03:00:00 - 23.09.2018 03:00:00 (CEST)Tarifa, Spain (8458): wind direction: 17.09.2018 03:00:00 - 23.09.2018 03:00:00 (CEST)Tarifa, Spain (8458): precipitation: 17.09.2018 03:00:00 - 23.09.2018 03:00:00 (CEST)
Date & Time tt [°C] td [°C] ff [km/h] ff [kn] fx [km/h] fx [kn] dd rr [mm]
23.09.2018 03:00:00 - - - - - - - -
23.09.2018 02:00:00 22,1 17,9 31 17 57 31 ENE -
23.09.2018 01:00:00 22,3 18,1 31 17 53 29 ENE 0,0
23.09.2018 00:00:00 22,4 18,2 30 16 51 28 ENE 0,0
22.09.2018 23:00:00 22,2 18,6 30 16 52 28 E 0,0
22.09.2018 22:00:00 22,2 18,6 32 17 55 30 ENE 0,0
22.09.2018 21:00:00 22,2 18,6 30 16 51 27 ENE 0,0
22.09.2018 20:00:00 22,4 18,8 33 18 52 28 E -
22.09.2018 19:00:00 22,6 19,0 29 16 48 26 E 0,0
22.09.2018 18:00:00 23,5 19,1 29 15 49 27 E 0,0
22.09.2018 17:00:00 23,9 18,5 29 16 54 29 E 0,0
22.09.2018 16:00:00 24,8 18,7 35 19 54 29 E 0,0
22.09.2018 15:00:00 25,0 18,7 35 19 54 29 E 0,0
22.09.2018 14:00:00 25,2 18,6 31 17 56 31 ENE -
22.09.2018 13:00:00 25,0 17,2 32 17 51 28 ENE 0,0
22.09.2018 12:00:00 24,7 16,9 31 17 97 52 E 0,0
22.09.2018 11:00:00 23,4 16,9 33 18 49 26 ENE 0,0
22.09.2018 10:00:00 22,6 17,3 29 15 48 26 ENE 0,0
22.09.2018 09:00:00 21,6 17,8 27 15 50 27 ENE 0,0
22.09.2018 08:00:00 21,6 17,8 23 12 46 25 ENE -
22.09.2018 07:00:00 21,7 17,5 27 14 40 22 ENE 0,0
22.09.2018 06:00:00 21,3 17,9 26 14 38 21 ENE 0,0
22.09.2018 05:00:00 21,6 17,4 23 13 38 21 E 0,0
22.09.2018 04:00:00 22,0 16,5 22 12 39 21 E 0,0
22.09.2018 03:00:00 22,5 15,3 25 13 43 23 E 0,0
22.09.2018 02:00:00 22,5 16,7 27 15 45 24 ENE -
22.09.2018 01:00:00 22,6 16,6 26 14 44 24 E 0,0
22.09.2018 00:00:00 22,4 18,2 28 15 45 24 ENE 0,0
21.09.2018 23:00:00 22,7 17,0 26 14 41 22 ENE 0,0
21.09.2018 22:00:00 22,6 17,1 26 14 42 23 E 0,0
21.09.2018 21:00:00 22,8 17,1 29 15 42 23 E 0,0
21.09.2018 20:00:00 23,2 17,6 26 14 40 21 E -
21.09.2018 19:00:00 23,8 18,7 27 14 46 25 E 0,0
21.09.2018 18:00:00 24,6 17,6 28 15 45 25 E 0,0
21.09.2018 17:00:00 24,4 17,6 35 19 48 26 E 0,0
21.09.2018 16:00:00 25,0 18,2 34 18 47 26 E 0,0
21.09.2018 15:00:00 25,2 18,4 27 15 40 22 E 0,0
21.09.2018 14:00:00 24,8 18,2 30 16 40 22 E -
21.09.2018 13:00:00 25,3 17,8 23 12 40 21 E 0,0
21.09.2018 12:00:00 24,7 17,9 25 14 36 20 E 0,0
21.09.2018 11:00:00 24,2 17,7 24 13 37 20 E 0,0
21.09.2018 10:00:00 23,3 18,4 22 12 34 19 E 0,0
21.09.2018 09:00:00 22,6 18,2 22 12 35 19 E 0,0
21.09.2018 08:00:00 22,3 18,1 23 12 36 20 E -
21.09.2018 07:00:00 22,2 18,6 25 14 41 22 E 0,0
21.09.2018 06:00:00 22,1 18,7 24 13 39 21 E 0,0
21.09.2018 05:00:00 22,3 18,7 23 13 39 21 E 0,0
21.09.2018 04:00:00 22,2 18,6 24 13 41 22 E 0,0
21.09.2018 03:00:00 22,7 18,0 21 12 38 20 ENE 0,0
21.09.2018 02:00:00 23,0 17,7 21 11 36 20 ENE -
21.09.2018 01:00:00 22,8 17,9 23 12 39 21 ENE 0,0
21.09.2018 00:00:00 22,9 18,5 25 14 43 23 ENE 0,0
20.09.2018 23:00:00 23,1 18,0 27 15 43 23 E 0,0
20.09.2018 22:00:00 23,2 18,1 29 16 41 22 E 0,0
20.09.2018 21:00:00 23,1 18,6 29 16 42 23 E 0,0
20.09.2018 20:00:00 23,2 18,8 27 14 45 24 E -
20.09.2018 19:00:00 23,6 18,9 29 15 45 25 E 0,0
20.09.2018 18:00:00 24,8 18,2 31 17 51 27 E 0,0
20.09.2018 17:00:00 24,8 18,5 33 18 50 27 E 0,0
20.09.2018 16:00:00 25,3 18,2 33 18 48 26 E 0,0
20.09.2018 15:00:00 26,2 18,1 29 16 48 26 E 0,0
20.09.2018 14:00:00 26,3 16,0 29 16 49 27 E -
20.09.2018 13:00:00 25,5 18,2 31 17 50 27 E 0,0
20.09.2018 12:00:00 25,3 18,2 30 16 47 26 E 0,0
20.09.2018 11:00:00 24,9 18,3 28 15 47 26 E 0,0
20.09.2018 10:00:00 24,1 19,2 29 16 44 24 ENE 0,0
20.09.2018 09:00:00 23,0 19,1 26 14 43 23 ENE 0,0
20.09.2018 08:00:00 22,9 19,1 27 15 44 24 ENE -
20.09.2018 07:00:00 22,8 18,5 29 15 45 24 ENE 0,0
20.09.2018 06:00:00 22,7 18,7 28 15 46 25 ENE 0,0
20.09.2018 05:00:00 22,6 18,5 29 16 45 24 ENE 0,0
20.09.2018 04:00:00 22,8 17,9 27 15 47 25 ENE 0,0
20.09.2018 03:00:00 22,8 17,9 26 14 45 24 ENE 0,0
20.09.2018 02:00:00 23,0 18,1 22 12 43 23 ENE -
20.09.2018 01:00:00 23,2 18,3 26 14 44 24 ENE 0,0
20.09.2018 00:00:00 23,2 18,1 27 15 45 24 ENE 0,0
19.09.2018 23:00:00 23,2 18,1 33 18 49 26 E 0,0
19.09.2018 22:00:00 23,0 17,9 31 17 48 26 E 0,0
19.09.2018 21:00:00 23,3 18,4 30 16 46 25 E 0,0
19.09.2018 20:00:00 23,6 18,0 29 16 46 25 E -
19.09.2018 19:00:00 24,7 16,9 25 13 46 25 E 0,0
19.09.2018 18:00:00 24,6 17,1 27 15 48 26 E 0,0
19.09.2018 17:00:00 24,7 16,1 34 18 47 26 E 0,0
19.09.2018 16:00:00 25,5 16,6 29 16 46 25 E 0,0
19.09.2018 15:00:00 25,7 16,6 28 15 42 23 E 0,0
19.09.2018 14:00:00 25,4 16,8 32 17 44 24 E -
19.09.2018 13:00:00 25,5 16,9 29 16 49 26 E 0,0
19.09.2018 12:00:00 23,9 17,6 33 18 43 23 E 0,0
19.09.2018 11:00:00 24,8 16,2 27 15 40 21 E 0,0
19.09.2018 10:00:00 24,0 17,0 20 11 38 20 ENE 0,0
19.09.2018 09:00:00 22,5 17,6 19 10 30 16 E 0,0
19.09.2018 08:00:00 21,9 17,9 13 7 23 13 ENE -
19.09.2018 07:00:00 21,6 18,0 12 6 27 14 ENE 0,0
19.09.2018 06:00:00 21,3 17,7 16 9 23 12 E 0,0
19.09.2018 05:00:00 20,9 17,3 11 6 15 8 E 0,0
19.09.2018 04:00:00 20,7 17,3 4 2 10 5 NNE 0,0
19.09.2018 03:00:00 21,1 17,5 0 0 7 4 SSE 0,0
19.09.2018 02:00:00 20,8 17,2 1 1 7 4 SE -
19.09.2018 01:00:00 21,4 17,8 6 3 12 6 ENE 0,0
19.09.2018 00:00:00 21,3 17,7 3 1 6 3 E 0,0
18.09.2018 23:00:00 21,8 18,2 3 2 5 3 ESE 0,0
18.09.2018 22:00:00 22,2 18,6 3 2 10 5 W 0,0
18.09.2018 21:00:00 22,4 18,5 4 2 13 7 WNW 0,0
18.09.2018 20:00:00 23,1 19,1 6 3 16 8 WNW -
18.09.2018 19:00:00 22,6 18,4 9 5 21 11 W 0,0
18.09.2018 18:00:00 25,0 18,2 13 7 18 10 W 0,0
18.09.2018 17:00:00 26,9 16,8 5 3 12 7 SSW 0,0
18.09.2018 16:00:00 26,2 17,3 7 4 15 8 SSE 0,0
18.09.2018 15:00:00 24,7 17,5 11 6 22 12 ESE 0,0
18.09.2018 14:00:00 25,9 16,1 12 6 20 11 ESE -
18.09.2018 13:00:00 25,3 16,5 14 8 19 10 ESE 0,0
18.09.2018 12:00:00 24,9 18,3 12 7 17 9 E 0,0
18.09.2018 11:00:00 23,5 19,1 9 5 14 8 ESE 0,0
18.09.2018 10:00:00 22,8 19,2 6 3 11 6 ESE 0,0
18.09.2018 09:00:00 22,2 18,6 3 1 12 6 ESE 0,0
18.09.2018 08:00:00 21,8 18,0 10 5 14 8 E -
18.09.2018 07:00:00 22,5 18,7 9 5 16 9 E 0,0
18.09.2018 06:00:00 22,3 18,3 12 7 24 13 E 0,0
18.09.2018 05:00:00 22,9 19,1 16 9 26 14 E 0,0
18.09.2018 04:00:00 22,6 19,0 16 8 28 15 E 0,0
18.09.2018 03:00:00 22,6 19,0 17 9 28 15 E 0,0
18.09.2018 02:00:00 22,7 19,1 14 8 27 15 E -
18.09.2018 01:00:00 22,7 19,1 9 5 36 19 E 0,0
18.09.2018 00:00:00 22,8 19,2 18 10 36 19 ENE 0,0
17.09.2018 23:00:00 23,1 19,5 24 13 40 22 ENE 0,0
17.09.2018 22:00:00 23,2 19,6 27 15 48 26 E 0,0
17.09.2018 21:00:00 23,2 19,1 29 16 45 25 E 0,0
17.09.2018 20:00:00 23,7 19,2 29 16 44 24 E -
17.09.2018 19:00:00 24,5 19,1 29 16 93 50 ENE 0,0
17.09.2018 18:00:00 25,4 18,6 29 15 49 27 E 0,0
17.09.2018 17:00:00 25,9 18,3 29 16 49 27 E 0,0
17.09.2018 16:00:00 25,8 18,2 34 18 51 27 ENE 0,0
17.09.2018 15:00:00 25,9 17,8 31 17 56 30 ENE 0,0
17.09.2018 14:00:00 25,1 17,3 37 20 54 29 ENE -
17.09.2018 13:00:00 25,3 17,8 39 21 55 30 E 0,0
17.09.2018 12:00:00 25,4 18,1 34 18 50 27 ENE 0,0
17.09.2018 11:00:00 24,1 18,3 30 16 48 26 ENE 0,0
17.09.2018 10:00:00 24,0 19,3 27 15 47 26 ENE 0,0
17.09.2018 09:00:00 23,2 19,3 29 16 50 27 E 0,0
17.09.2018 08:00:00 23,2 19,1 28 15 45 24 ENE -
17.09.2018 07:00:00 23,3 18,6 31 17 51 27 E 0,0
17.09.2018 06:00:00 23,3 18,4 32 18 53 29 ENE 0,0
17.09.2018 05:00:00 23,1 19,3 32 17 51 28 ENE 0,0
17.09.2018 04:00:00 23,2 19,6 34 18 53 29 ENE 0,0
17.09.2018 03:00:00 23,0 19,3 34 18 54 29 ENE 0,0

tt = temperature
td = dewpoint
ff = wind speed
fx = gusts
dd = wind direction
rr = precipitation

Next stations